Time;durP1;ratioP1;P1;durP2;ratioP2;P2;SDS_P1;SDS_P2;PMS_P1;PMS_P2;Temp;Humidity;BMP_temperature;BMP_pressure;BME280_temperature;BME280_humidity;BME280_pressure;Samples;Min_cycle;Max_cycle;Signal;HPM_P1;HPM_P2
2023/02/27 00:01:13;;;;;;;6.03;0.70;;;1.20;99.90;;;;;;4955112;28;20074;-80
2023/02/27 00:03:40;;;;;;;4.40;0.55;;;1.20;99.90;;;;;;4950801;28;20051;-80
2023/02/27 00:06:07;;;;;;;2.55;0.50;;;1.20;99.90;;;;;;4956352;28;20471;-81
2023/02/27 00:08:34;;;;;;;2.15;0.38;;;1.20;99.90;;;;;;4951371;28;20050;-81
2023/02/27 00:11:01;;;;;;;1.50;0.17;;;1.20;99.90;;;;;;4956110;28;20046;-81
2023/02/27 00:13:28;;;;;;;0.88;0.85;;;1.20;99.90;;;;;;4951681;28;20138;-81
2023/02/27 00:15:55;;;;;;;4.22;0.95;;;1.10;99.90;;;;;;4952422;28;20039;-81
2023/02/27 00:18:22;;;;;;;1.42;0.90;;;1.10;99.90;;;;;;4951728;28;20058;-81
2023/02/27 00:20:49;;;;;;;1.95;0.50;;;1.10;99.90;;;;;;4956022;28;20053;-81
2023/02/27 00:23:16;;;;;;;1.77;0.75;;;1.10;99.90;;;;;;4951607;28;20138;-81
2023/02/27 00:25:43;;;;;;;2.25;0.40;;;1.10;99.90;;;;;;4949986;28;20150;-80
2023/02/27 00:28:10;;;;;;;6.07;1.00;;;1.00;99.90;;;;;;4953813;28;20081;-82
2023/02/27 00:30:37;;;;;;;4.53;0.82;;;1.00;99.90;;;;;;4950937;28;20661;-81
2023/02/27 00:33:04;;;;;;;2.22;0.52;;;1.00;99.90;;;;;;4953244;28;20412;-81
2023/02/27 00:35:32;;;;;;;2.00;0.60;;;0.90;99.90;;;;;;4951074;28;20047;-81
2023/02/27 00:37:59;;;;;;;2.90;0.95;;;0.90;99.90;;;;;;4954974;28;20050;-82
2023/02/27 00:40:26;;;;;;;1.30;0.65;;;0.90;99.90;;;;;;4953918;28;20074;-81
2023/02/27 00:42:53;;;;;;;2.17;0.60;;;0.80;99.90;;;;;;4962334;28;20042;-80
2023/02/27 00:45:20;;;;;;;2.25;0.73;;;0.60;99.90;;;;;;4954872;28;20622;-81
2023/02/27 00:47:47;;;;;;;0.63;0.55;;;0.50;99.90;;;;;;4954337;28;20050;-81
2023/02/27 00:50:14;;;;;;;5.90;0.77;;;0.30;99.90;;;;;;4954567;28;20038;-81
2023/02/27 00:52:41;;;;;;;1.52;0.55;;;0.20;99.90;;;;;;4958076;28;20062;-82
2023/02/27 00:55:09;;;;;;;3.70;0.52;;;0.00;99.90;;;;;;4953840;28;20046;-80
2023/02/27 00:57:37;;;;;;;1.08;0.50;;;-0.10;99.90;;;;;;4955021;28;20054;-81
2023/02/27 01:00:07;;;;;;;3.38;0.90;;;-0.20;99.90;;;;;;4954598;28;20499;-82
2023/02/27 01:02:34;;;;;;;1.45;1.08;;;-0.30;99.90;;;;;;4957226;28;20495;-81
2023/02/27 01:05:02;;;;;;;5.03;0.82;;;-0.40;99.90;;;;;;4957355;28;20046;-82
2023/02/27 01:07:30;;;;;;;1.83;0.85;;;-0.50;99.90;;;;;;4948825;28;20149;-80
2023/02/27 01:10:00;;;;;;;1.85;0.68;;;-0.60;99.90;;;;;;4950906;28;20036;-81
2023/02/27 01:12:27;;;;;;;3.03;0.90;;;-0.60;99.90;;;;;;4955515;28;20035;-81
2023/02/27 01:14:54;;;;;;;1.55;0.70;;;-0.70;99.90;;;;;;4956827;28;20481;-81
2023/02/27 01:17:21;;;;;;;1.38;0.40;;;-0.70;99.90;;;;;;4953473;28;20393;-81
2023/02/27 01:19:48;;;;;;;0.82;0.50;;;-0.70;99.90;;;;;;4956286;28;20440;-80
2023/02/27 01:22:15;;;;;;;1.20;0.75;;;-0.80;99.90;;;;;;4949522;28;20055;-80
2023/02/27 01:24:42;;;;;;;2.67;0.82;;;-0.80;99.90;;;;;;4955515;28;20085;-80
2023/02/27 01:27:09;;;;;;;2.30;0.80;;;-0.90;99.90;;;;;;4953406;28;20081;-80
2023/02/27 01:29:36;;;;;;;3.72;1.13;;;-1.00;99.90;;;;;;4951377;28;20130;-81
2023/02/27 01:32:03;;;;;;;1.98;0.68;;;-1.00;99.90;;;;;;4937786;28;20079;-80
2023/02/27 01:34:30;;;;;;;1.23;0.60;;;-1.00;99.90;;;;;;4954442;28;20123;-80
2023/02/27 01:37:01;;;;;;;2.40;0.98;;;-1.10;99.90;;;;;;4950023;28;20472;-81
2023/02/27 01:39:28;;;;;;;1.85;0.98;;;-1.10;99.90;;;;;;4951215;28;20082;-81
2023/02/27 01:41:55;;;;;;;1.70;0.65;;;-1.20;99.90;;;;;;4947853;28;20054;-81
2023/02/27 01:44:26;;;;;;;0.95;0.45;;;-1.30;99.90;;;;;;4954790;28;20050;-81
2023/02/27 01:46:54;;;;;;;2.28;0.88;;;-1.30;99.90;;;;;;4952961;28;20075;-81
2023/02/27 01:49:25;;;;;;;3.90;0.70;;;-1.30;99.90;;;;;;4952104;28;20114;-82
2023/02/27 01:52:04;;;;;;;1.73;0.73;;;-1.40;99.90;;;;;;4955969;28;20050;-81
2023/02/27 01:54:36;;;;;;;2.17;0.65;;;-1.40;99.90;;;;;;4960963;28;20528;-81
2023/02/27 01:57:05;;;;;;;5.65;1.10;;;-1.40;99.90;;;;;;4956681;28;20508;-81
2023/02/27 01:59:34;;;;;;;1.88;1.10;;;-1.50;99.90;;;;;;4952807;28;20097;-81
2023/02/27 02:02:06;;;;;;;2.30;0.88;;;-1.50;99.90;;;;;;4956303;28;20054;-80
2023/02/27 02:04:37;;;;;;;5.50;0.98;;;-1.60;99.90;;;;;;4957331;28;20079;-81
2023/02/27 02:07:11;;;;;;;2.08;0.73;;;-1.60;99.90;;;;;;4957088;28;20482;-82
2023/02/27 02:09:55;;;;;;;1.55;0.93;;;-1.70;99.90;;;;;;4953222;28;20137;-81
2023/02/27 02:12:25;;;;;;;4.05;1.00;;;-1.70;99.90;;;;;;4943118;28;20047;-81
2023/02/27 02:14:52;;;;;;;1.63;1.13;;;-1.80;99.90;;;;;;4948960;28;20080;-81
2023/02/27 02:17:50;;;;;;;6.35;1.15;;;-1.80;99.90;;;;;;4955661;28;20051;-81
2023/02/27 02:20:36;;;;;;;3.85;0.93;;;-1.80;99.90;;;;;;4969944;28;20088;-81
2023/02/27 02:23:30;;;;;;;2.10;0.88;;;-1.90;99.90;;;;;;4951765;28;20079;-81
2023/02/27 02:26:09;;;;;;;4.07;1.15;;;-1.90;99.90;;;;;;4967939;28;20079;-81
2023/02/27 02:28:45;;;;;;;2.20;1.20;;;-2.00;99.90;;;;;;4953121;28;20123;-81
2023/02/27 02:31:46;;;;;;;0.98;0.70;;;-2.10;99.90;;;;;;4953795;28;20126;-81
2023/02/27 02:34:44;;;;;;;3.80;1.00;;;-2.10;99.90;;;;;;4962988;28;20094;-81
2023/02/27 02:37:48;;;;;;;2.35;1.85;;;-2.10;99.90;;;;;;4952799;28;20051;-81
2023/02/27 02:40:25;;;;;;;3.28;1.80;;;-2.20;99.90;;;;;;4957864;28;20819;-81
2023/02/27 02:43:01;;;;;;;3.63;1.65;;;-2.20;99.90;;;;;;4956948;28;20058;-81
2023/02/27 02:46:10;;;;;;;1.83;1.60;;;-2.20;99.90;;;;;;4954372;28;20472;-81
2023/02/27 02:48:43;;;;;;;2.65;1.20;;;-2.20;99.90;;;;;;4949939;28;20049;-82
2023/02/27 02:51:36;;;;;;;2.75;1.75;;;-2.30;99.90;;;;;;4958600;28;20138;-82
2023/02/27 02:54:29;;;;;;;2.58;1.63;;;-2.30;99.90;;;;;;4961660;28;20043;-82
2023/02/27 02:57:08;;;;;;;3.90;1.95;;;-2.40;99.90;;;;;;4954345;28;20054;-82
2023/02/27 02:59:52;;;;;;;3.92;1.67;;;-2.40;99.90;;;;;;4965261;28;20042;-82
2023/02/27 03:02:30;;;;;;;5.63;2.28;;;-2.40;99.90;;;;;;4955221;28;20050;-81
2023/02/27 03:05:02;;;;;;;3.90;2.10;;;-2.50;99.90;;;;;;4965445;28;20054;-82
2023/02/27 03:07:38;;;;;;;6.55;3.10;;;-2.50;99.90;;;;;;4951491;28;20055;-82
2023/02/27 03:10:11;;;;;;;2.13;1.92;;;-2.50;99.90;;;;;;4956606;28;20146;-82
2023/02/27 03:12:42;;;;;;;5.80;2.22;;;-2.60;99.90;;;;;;4940064;28;20055;-81
2023/02/27 03:15:38;;;;;;;5.32;2.47;;;-2.70;99.90;;;;;;4960926;28;20047;-82
2023/02/27 03:18:19;;;;;;;4.30;2.35;;;-2.70;99.90;;;;;;4935665;28;20047;-81
2023/02/27 03:20:51;;;;;;;5.07;2.88;;;-2.80;99.90;;;;;;4970773;28;20055;-81
2023/02/27 03:23:31;;;;;;;4.82;2.97;;;-2.80;99.90;;;;;;4951627;28;20133;-82
2023/02/27 03:25:58;;;;;;;4.47;2.70;;;-2.80;99.90;;;;;;4955158;28;20070;-82
2023/02/27 03:28:34;;;;;;;4.68;2.90;;;-2.90;99.90;;;;;;4971870;28;20054;-82
2023/02/27 03:31:24;;;;;;;3.50;2.42;;;-2.90;99.90;;;;;;4951424;28;20046;-82
2023/02/27 03:34:24;;;;;;;3.13;2.67;;;-2.90;99.90;;;;;;4965678;28;20039;-81
2023/02/27 03:36:51;;;;;;;6.75;3.05;;;-2.90;99.90;;;;;;4941302;28;20047;-82
2023/02/27 03:39:26;;;;;;;2.80;2.17;;;-2.90;99.90;;;;;;4955305;28;20133;-81
2023/02/27 03:42:13;;;;;;;5.53;2.67;;;-2.90;99.90;;;;;;4967348;28;20118;-81
2023/02/27 03:45:15;;;;;;;2.85;1.95;;;-3.00;99.90;;;;;;4955938;28;20066;-81
2023/02/27 03:47:42;;;;;;;5.65;2.10;;;-3.00;99.90;;;;;;4965614;28;20081;-81
2023/02/27 03:50:10;;;;;;;3.03;1.55;;;-3.10;99.90;;;;;;4958080;28;20460;-81
2023/02/27 03:52:37;;;;;;;3.35;1.85;;;-3.10;99.90;;;;;;4956671;28;20055;-81
2023/02/27 03:55:13;;;;;;;3.40;1.60;;;-3.10;99.90;;;;;;4954017;28;20078;-81
2023/02/27 03:57:42;;;;;;;3.05;1.60;;;-3.10;99.90;;;;;;4950246;28;20051;-81
2023/02/27 04:00:16;;;;;;;3.47;1.65;;;-3.20;99.90;;;;;;4953746;28;20086;-81
2023/02/27 04:02:46;;;;;;;1.25;1.15;;;-3.20;99.90;;;;;;4955468;28;20131;-81
2023/02/27 04:05:17;;;;;;;3.28;1.73;;;-3.20;99.90;;;;;;4958192;28;20046;-81
2023/02/27 04:08:07;;;;;;;3.33;1.45;;;-3.20;99.90;;;;;;4955609;28;20137;-81
2023/02/27 04:11:12;;;;;;;3.42;1.58;;;-3.30;99.90;;;;;;4954079;28;20453;-80
2023/02/27 04:13:56;;;;;;;5.03;1.52;;;-3.30;99.90;;;;;;4958402;28;20059;-80
2023/02/27 04:16:44;;;;;;;2.90;1.45;;;-3.40;99.90;;;;;;4959856;28;20107;-80
2023/02/27 04:19:26;;;;;;;2.55;1.25;;;-3.50;99.90;;;;;;4957451;28;20065;-80
2023/02/27 04:22:05;;;;;;;2.97;1.73;;;-3.50;99.90;;;;;;4952847;28;20137;-81
2023/02/27 04:24:48;;;;;;;6.23;1.83;;;-3.50;99.90;;;;;;4955208;28;20149;-80
2023/02/27 04:27:33;;;;;;;2.70;1.45;;;-3.50;99.90;;;;;;4951464;28;20055;-81
2023/02/27 04:30:21;;;;;;;3.35;1.52;;;-3.50;99.90;;;;;;4951698;28;20062;-80
2023/02/27 04:32:59;;;;;;;3.80;1.02;;;-3.60;99.90;;;;;;4957830;28;20128;-80
2023/02/27 04:35:46;;;;;;;4.25;1.42;;;-3.60;99.90;;;;;;4952574;28;20047;-80
2023/02/27 04:38:54;;;;;;;1.95;1.23;;;-3.60;99.90;;;;;;4967362;28;20404;-80
2023/02/27 04:41:31;;;;;;;5.60;1.75;;;-3.60;99.90;;;;;;4948797;28;20539;-80
2023/02/27 04:44:00;;;;;;;2.22;1.58;;;-3.60;99.90;;;;;;4957676;28;20141;-80
2023/02/27 04:46:30;;;;;;;1.17;1.08;;;-3.60;99.90;;;;;;4962004;28;20055;-81
2023/02/27 04:48:59;;;;;;;2.00;1.20;;;-3.60;99.90;;;;;;4957381;28;20856;-81
2023/02/27 04:51:34;;;;;;;5.67;1.70;;;-3.60;99.90;;;;;;4950442;28;20130;-80
2023/02/27 04:54:11;;;;;;;3.83;2.35;;;-3.70;99.90;;;;;;4951315;28;20293;-81
2023/02/27 04:56:47;;;;;;;1.55;1.20;;;-3.70;99.90;;;;;;4957421;28;20047;-80
2023/02/27 04:59:23;;;;;;;5.38;1.13;;;-3.70;99.90;;;;;;4955174;28;20147;-80
2023/02/27 05:01:58;;;;;;;3.28;1.48;;;-3.70;99.90;;;;;;4947280;28;20555;-80
2023/02/27 05:04:30;;;;;;;2.10;1.90;;;-3.70;99.90;;;;;;4953056;28;20731;-80
2023/02/27 05:06:59;;;;;;;2.42;0.93;;;-3.70;99.90;;;;;;4950126;28;20146;-80
2023/02/27 05:09:39;;;;;;;5.63;1.27;;;-3.70;99.90;;;;;;4948883;28;20081;-80
2023/02/27 05:12:21;;;;;;;2.47;0.98;;;-3.70;99.90;;;;;;4941627;28;20050;-80
2023/02/27 05:14:58;;;;;;;3.58;1.27;;;-3.60;99.90;;;;;;4965001;28;20062;-80
2023/02/27 05:17:33;;;;;;;2.53;1.10;;;-3.60;99.90;;;;;;4948339;28;20083;-80
2023/02/27 05:20:04;;;;;;;1.33;1.23;;;-3.50;99.90;;;;;;4955933;28;20398;-80
2023/02/27 05:22:34;;;;;;;4.97;1.20;;;-3.50;99.90;;;;;;4954620;28;20051;-80
2023/02/27 05:25:12;;;;;;;3.47;1.25;;;-3.40;99.90;;;;;;4962602;28;20089;-80
2023/02/27 05:27:48;;;;;;;6.40;1.10;;;-3.40;99.90;;;;;;4959414;28;20040;-80
2023/02/27 05:30:35;;;;;;;2.58;0.90;;;-3.40;99.90;;;;;;4956792;28;20073;-80
2023/02/27 05:33:14;;;;;;;3.92;1.08;;;-3.30;99.90;;;;;;4949280;28;20133;-80
2023/02/27 05:35:51;;;;;;;3.42;2.58;;;-3.20;99.90;;;;;;4961839;28;20047;-80
2023/02/27 05:38:33;;;;;;;2.50;2.10;;;-3.20;99.90;;;;;;4949518;28;20046;-80
2023/02/27 05:41:20;;;;;;;4.28;2.00;;;-3.10;99.90;;;;;;4964203;28;20039;-80
2023/02/27 05:43:57;;;;;;;8.18;3.83;;;-3.00;99.90;;;;;;4954753;28;20045;-80
2023/02/27 05:46:29;;;;;;;8.13;5.93;;;-3.00;99.90;;;;;;4966074;28;20459;-80
2023/02/27 05:49:06;;;;;;;4.07;3.30;;;-2.80;99.90;;;;;;4949964;28;20051;-80
2023/02/27 05:51:36;;;;;;;7.40;4.10;;;-2.70;99.90;;;;;;4960696;28;20113;-80
2023/02/27 05:54:12;;;;;;;8.70;3.08;;;-2.60;99.90;;;;;;4964577;28;20158;-80
2023/02/27 05:56:41;;;;;;;9.07;3.55;;;-2.50;99.90;;;;;;4961045;28;20559;-80
2023/02/27 05:59:21;;;;;;;6.28;3.45;;;-2.40;99.90;;;;;;4957968;28;20057;-80
2023/02/27 06:01:47;;;;;;;6.57;3.42;;;-2.40;99.90;;;;;;4957358;28;20098;-80
2023/02/27 06:04:14;;;;;;;6.78;3.13;;;-2.40;99.90;;;;;;4960375;28;20097;-80
2023/02/27 06:06:43;;;;;;;5.32;3.60;;;-2.40;99.90;;;;;;4961548;28;20094;-80
2023/02/27 06:09:10;;;;;;;5.57;4.03;;;-2.30;99.90;;;;;;4957510;28;20131;-80
2023/02/27 06:11:37;;;;;;;18.42;3.83;;;-2.30;99.90;;;;;;4954531;28;20109;-80
2023/02/27 06:14:04;;;;;;;10.15;3.30;;;-2.30;99.90;;;;;;4959476;28;20047;-80
2023/02/27 06:16:31;;;;;;;7.05;3.85;;;-2.20;99.90;;;;;;4977739;28;20145;-80
2023/02/27 06:19:00;;;;;;;7.97;5.53;;;-2.20;99.90;;;;;;4958130;28;20051;-80
2023/02/27 06:21:31;;;;;;;16.10;9.07;;;-2.20;99.90;;;;;;4956232;28;20130;-80
2023/02/27 06:23:58;;;;;;;21.88;11.23;;;-2.00;99.90;;;;;;4953621;28;20051;-80
2023/02/27 06:26:25;;;;;;;10.80;8.30;;;-1.90;99.90;;;;;;4956044;28;20051;-80
2023/02/27 06:28:52;;;;;;;16.17;10.50;;;-1.90;99.90;;;;;;4958605;28;21132;-80
2023/02/27 06:31:19;;;;;;;30.02;15.20;;;-1.80;99.90;;;;;;4956399;28;20448;-80
2023/02/27 06:33:46;;;;;;;24.65;15.80;;;-1.80;99.90;;;;;;4957664;28;20071;-80
2023/02/27 06:36:13;;;;;;;20.20;13.52;;;-1.70;99.90;;;;;;4957656;28;20054;-81
2023/02/27 06:38:40;;;;;;;19.42;10.20;;;-1.70;99.90;;;;;;4952630;28;20043;-80
2023/02/27 06:41:07;;;;;;;15.27;8.40;;;-1.60;99.90;;;;;;4958735;28;20047;-80
2023/02/27 06:43:35;;;;;;;12.27;6.70;;;-1.50;99.90;;;;;;4952719;28;20061;-80
2023/02/27 06:46:03;;;;;;;10.70;5.68;;;-1.50;99.90;;;;;;4957241;28;20158;-80
2023/02/27 06:48:30;;;;;;;10.35;5.30;;;-1.50;99.90;;;;;;4959164;28;20054;-80
2023/02/27 06:50:57;;;;;;;8.13;5.00;;;-1.40;99.90;;;;;;4955216;28;20499;-80
2023/02/27 06:53:24;;;;;;;5.75;4.60;;;-1.30;99.90;;;;;;4958695;28;20086;-80
2023/02/27 06:55:51;;;;;;;8.18;4.85;;;-1.30;99.90;;;;;;4955776;28;20043;-82
2023/02/27 06:58:18;;;;;;;13.80;5.28;;;-1.20;99.90;;;;;;4956650;28;20082;-81
2023/02/27 07:00:45;;;;;;;9.23;4.88;;;-1.20;99.90;;;;;;4958899;28;20047;-80
2023/02/27 07:03:13;;;;;;;7.15;3.90;;;-1.10;99.90;;;;;;4955032;28;20137;-80
2023/02/27 07:05:41;;;;;;;4.72;2.83;;;-1.10;99.90;;;;;;4957272;28;20495;-81
2023/02/27 07:08:09;;;;;;;5.95;2.88;;;-1.00;99.90;;;;;;4953377;28;20049;-80
2023/02/27 07:10:37;;;;;;;6.43;3.13;;;-1.00;99.90;;;;;;4943714;28;20058;-81
2023/02/27 07:13:04;;;;;;;10.80;2.60;;;-0.90;99.90;;;;;;4959456;28;20043;-81
2023/02/27 07:15:31;;;;;;;11.70;3.97;;;-0.90;99.90;;;;;;4954033;28;20051;-81
2023/02/27 07:17:58;;;;;;;10.70;2.60;;;-0.80;99.90;;;;;;4951025;28;20062;-81
2023/02/27 07:20:25;;;;;;;8.48;3.42;;;-0.80;99.90;;;;;;4954914;28;20547;-80
2023/02/27 07:22:52;;;;;;;6.40;3.85;;;-0.70;99.90;;;;;;4952745;28;20138;-81
2023/02/27 07:25:19;;;;;;;8.93;3.72;;;-0.70;99.90;;;;;;4959251;28;20061;-81
2023/02/27 07:27:48;;;;;;;5.85;3.22;;;-0.60;99.90;;;;;;4955861;28;20042;-81
2023/02/27 07:30:16;;;;;;;11.63;4.43;;;-0.60;99.90;;;;;;4959561;28;20045;-81
2023/02/27 07:32:44;;;;;;;6.13;4.28;;;-0.50;99.90;;;;;;4960872;28;20591;-81
2023/02/27 07:35:11;;;;;;;4.55;3.95;;;-0.50;99.90;;;;;;4956207;28;20708;-81
2023/02/27 07:37:38;;;;;;;13.55;5.22;;;-0.50;99.90;;;;;;4954897;28;20520;-81
2023/02/27 07:40:09;;;;;;;8.45;4.72;;;-0.40;99.90;;;;;;4954886;28;20057;-81
2023/02/27 07:42:35;;;;;;;10.95;6.57;;;-0.30;99.90;;;;;;4960749;28;20051;-82
2023/02/27 07:45:03;;;;;;;7.20;5.45;;;-0.30;99.90;;;;;;4954403;28;20082;-81
2023/02/27 07:47:30;;;;;;;5.97;2.33;;;-0.20;99.90;;;;;;4956648;28;20125;-81
2023/02/27 07:49:57;;;;;;;4.00;1.88;;;-0.10;99.90;;;;;;4953729;28;20043;-81
2023/02/27 07:52:24;;;;;;;3.50;2.05;;;0.00;99.90;;;;;;4959757;28;20074;-81
2023/02/27 07:54:51;;;;;;;4.45;1.42;;;0.10;99.90;;;;;;4940770;28;20876;-82
2023/02/27 07:57:18;;;;;;;10.32;2.22;;;0.20;99.90;;;;;;4960053;28;20483;-81
2023/02/27 07:59:45;;;;;;;3.83;1.90;;;0.30;99.90;;;;;;4957938;28;20055;-81
2023/02/27 08:02:12;;;;;;;6.35;1.85;;;0.50;99.90;;;;;;4959053;28;20535;-81
2023/02/27 08:04:39;;;;;;;7.22;3.05;;;0.60;99.90;;;;;;4961058;28;20053;-80
2023/02/27 08:07:07;;;;;;;11.15;6.20;;;0.70;99.90;;;;;;4937796;28;20039;-80
2023/02/27 08:09:33;;;;;;;13.13;6.68;;;0.80;99.90;;;;;;4952507;28;20051;-82
2023/02/27 08:12:01;;;;;;;9.05;6.43;;;0.90;99.90;;;;;;4959226;28;20574;-80
2023/02/27 08:14:28;;;;;;;11.85;6.55;;;1.00;99.90;;;;;;4955246;28;20114;-81
2023/02/27 08:16:55;;;;;;;18.08;6.78;;;1.10;99.90;;;;;;4953753;28;20047;-80
2023/02/27 08:19:22;;;;;;;14.68;6.10;;;1.10;99.90;;;;;;4955368;28;20087;-81
2023/02/27 08:21:49;;;;;;;9.57;3.70;;;1.20;99.90;;;;;;4957168;28;20094;-80
2023/02/27 08:24:16;;;;;;;15.10;4.63;;;1.20;99.90;;;;;;4963396;28;20094;-80
2023/02/27 08:26:43;;;;;;;6.20;3.03;;;1.40;99.90;;;;;;4962832;28;20074;-81
2023/02/27 08:29:10;;;;;;;10.82;3.03;;;1.50;99.90;;;;;;4955627;28;20133;-80
2023/02/27 08:31:37;;;;;;;5.82;2.30;;;1.60;99.90;;;;;;4955912;28;20138;-81
2023/02/27 08:34:05;;;;;;;8.32;2.50;;;1.70;99.90;;;;;;4937090;28;20054;-81
2023/02/27 08:36:36;;;;;;;5.85;2.05;;;1.80;99.90;;;;;;4956812;28;20051;-81
2023/02/27 08:39:08;;;;;;;9.10;2.47;;;1.90;99.90;;;;;;4954983;28;20142;-81
2023/02/27 08:41:35;;;;;;;3.70;2.03;;;1.90;99.90;;;;;;4953629;28;20042;-80
2023/02/27 08:44:02;;;;;;;3.80;2.03;;;2.00;99.90;;;;;;4954763;28;20047;-80
2023/02/27 08:46:29;;;;;;;2.88;1.25;;;2.10;99.90;;;;;;4956413;28;20055;-81
2023/02/27 08:48:56;;;;;;;3.03;1.35;;;2.20;99.90;;;;;;4957025;28;20054;-80
2023/02/27 08:51:23;;;;;;;3.75;1.27;;;2.30;99.90;;;;;;4952477;28;20627;-81
2023/02/27 08:53:51;;;;;;;4.97;1.58;;;2.40;99.90;;;;;;4951742;28;20091;-82
2023/02/27 08:56:18;;;;;;;7.47;1.08;;;2.50;99.90;;;;;;4959701;28;20046;-81
2023/02/27 08:58:45;;;;;;;4.50;1.00;;;2.60;99.90;;;;;;4950389;28;20122;-82
2023/02/27 09:01:12;;;;;;;2.92;1.02;;;2.60;99.90;;;;;;4960353;28;20296;-81
2023/02/27 09:03:40;;;;;;;11.35;1.73;;;2.70;99.90;;;;;;4951978;28;20146;-80
2023/02/27 09:06:07;;;;;;;8.10;1.20;;;2.80;99.90;;;;;;4958345;28;20505;-81
2023/02/27 09:08:34;;;;;;;4.68;1.05;;;2.90;99.90;;;;;;4954914;28;20055;-81
2023/02/27 09:11:01;;;;;;;4.85;1.33;;;3.00;99.90;;;;;;4953399;28;20054;-82
2023/02/27 09:13:28;;;;;;;6.95;1.05;;;3.00;99.90;;;;;;4952452;28;20083;-82
2023/02/27 09:15:56;;;;;;;3.83;0.60;;;3.10;99.90;;;;;;4959441;28;20050;-81
2023/02/27 09:18:23;;;;;;;3.80;1.15;;;3.10;99.90;;;;;;4954633;28;20816;-81
2023/02/27 09:20:50;;;;;;;1.33;1.10;;;3.20;99.90;;;;;;4954909;28;20063;-81
2023/02/27 09:23:17;;;;;;;1.77;0.90;;;3.20;99.90;;;;;;4957871;28;20057;-81
2023/02/27 09:25:46;;;;;;;1.58;0.52;;;3.20;99.90;;;;;;4938681;28;20046;-81
2023/02/27 09:28:13;;;;;;;3.65;1.10;;;3.30;99.90;;;;;;4962129;28;20138;-81
2023/02/27 09:30:40;;;;;;;5.30;0.98;;;3.30;99.90;;;;;;4956294;28;20106;-82
2023/02/27 09:33:07;;;;;;;4.13;1.10;;;3.30;99.90;;;;;;4957906;28;20375;-81
2023/02/27 09:35:34;;;;;;;2.00;1.25;;;3.20;99.90;;;;;;4952739;28;20103;-81
2023/02/27 09:38:02;;;;;;;3.75;0.95;;;3.20;99.90;;;;;;4957754;28;20397;-81
2023/02/27 09:40:31;;;;;;;1.27;1.00;;;3.20;99.90;;;;;;4957495;28;20055;-81
2023/02/27 09:43:09;;;;;;;3.47;0.80;;;3.30;99.90;;;;;;4961173;28;20051;-81
2023/02/27 09:45:38;;;;;;;3.53;1.23;;;3.30;99.90;;;;;;4955512;28;20062;-81
2023/02/27 09:48:13;;;;;;;1.90;0.90;;;3.40;99.90;;;;;;4955110;28;20165;-82
2023/02/27 09:50:47;;;;;;;3.03;1.13;;;3.40;99.90;;;;;;4955199;28;20167;-82
2023/02/27 09:53:17;;;;;;;9.85;3.60;;;3.50;99.90;;;;;;4964189;28;20115;-82
2023/02/27 09:55:45;;;;;;;3.33;0.90;;;3.50;99.90;;;;;;4950754;28;20054;-82
2023/02/27 09:58:30;;;;;;;4.13;1.13;;;3.60;99.90;;;;;;4958883;28;20110;-83
2023/02/27 10:01:07;;;;;;;1.42;0.75;;;3.70;99.90;;;;;;4959245;28;20043;-82
2023/02/27 10:04:17;;;;;;;4.82;1.90;;;3.70;99.90;;;;;;4952374;28;20043;-82
2023/02/27 10:06:54;;;;;;;6.07;1.30;;;3.80;99.90;;;;;;4958405;28;20047;-82
2023/02/27 10:09:43;;;;;;;4.03;0.77;;;3.80;99.90;;;;;;4950351;28;20130;-82
2023/02/27 10:12:40;;;;;;;4.30;1.17;;;3.90;99.90;;;;;;4955240;28;20055;-82
2023/02/27 10:15:23;;;;;;;6.65;1.73;;;3.90;99.90;;;;;;4956006;28;20045;-82
2023/02/27 10:17:57;;;;;;;7.72;2.10;;;3.80;99.90;;;;;;4963141;28;20102;-82
2023/02/27 10:20:35;;;;;;;4.00;1.40;;;3.80;99.90;;;;;;4959588;28;20105;-81
2023/02/27 10:23:13;;;;;;;2.00;0.98;;;3.80;99.90;;;;;;4961115;28;20075;-81
2023/02/27 10:25:47;;;;;;;4.53;1.30;;;3.80;99.90;;;;;;4957427;28;20054;-82
2023/02/27 10:28:21;;;;;;;4.88;1.52;;;3.80;99.90;;;;;;4962124;28;20109;-81
2023/02/27 10:30:54;;;;;;;2.05;1.35;;;3.90;99.90;;;;;;4959476;28;20143;-82
2023/02/27 10:33:33;;;;;;;4.38;1.05;;;3.90;99.90;;;;;;4958840;28;20169;-82
2023/02/27 10:36:01;;;;;;;4.13;1.10;;;3.80;99.90;;;;;;4961334;28;20205;-81
2023/02/27 10:38:36;;;;;;;9.80;1.33;;;3.90;99.90;;;;;;4956733;28;20059;-82
2023/02/27 10:41:03;;;;;;;3.28;0.75;;;4.00;99.90;;;;;;4958306;28;20133;-82
2023/02/27 10:43:30;;;;;;;2.55;0.85;;;3.90;99.90;;;;;;4951459;28;20094;-81
2023/02/27 10:46:02;;;;;;;3.20;0.63;;;3.90;99.90;;;;;;4953749;28;20087;-81
2023/02/27 10:48:31;;;;;;;4.07;1.17;;;4.00;99.90;;;;;;4961599;28;20062;-82
2023/02/27 10:51:17;;;;;;;3.13;1.13;;;3.90;99.90;;;;;;4959152;28;20054;-83
2023/02/27 10:53:44;;;;;;;2.50;1.73;;;3.90;99.90;;;;;;4951390;28;20047;-83
2023/02/27 10:56:16;;;;;;;5.35;1.85;;;3.80;99.90;;;;;;4955610;28;20047;-82
2023/02/27 10:58:44;;;;;;;8.43;3.42;;;3.80;99.90;;;;;;4962572;28;20138;-83
2023/02/27 11:01:12;;;;;;;2.88;1.00;;;3.80;99.90;;;;;;4955061;28;20133;-82
2023/02/27 11:03:41;;;;;;;3.13;1.75;;;3.80;99.90;;;;;;4952319;28;20082;-82
2023/02/27 11:06:11;;;;;;;2.55;1.05;;;3.80;99.90;;;;;;4955749;28;20142;-82
2023/02/27 11:08:38;;;;;;;3.17;0.93;;;3.80;99.90;;;;;;4951569;28;20146;-82
2023/02/27 11:11:10;;;;;;;4.70;1.35;;;3.70;99.90;;;;;;4970973;28;21432;-82
2023/02/27 11:13:43;;;;;;;7.30;1.17;;;3.70;99.90;;;;;;4951904;28;20084;-83
2023/02/27 11:16:20;;;;;;;3.10;1.73;;;3.70;99.90;;;;;;4958018;28;20179;-82
2023/02/27 11:18:49;;;;;;;3.45;1.00;;;3.80;99.90;;;;;;4957397;28;20496;-82
2023/02/27 11:21:25;;;;;;;3.53;1.30;;;3.90;99.90;;;;;;4957438;28;20142;-82
2023/02/27 11:23:58;;;;;;;2.13;1.27;;;3.90;99.90;;;;;;4968412;28;20173;-82
2023/02/27 11:26:32;;;;;;;2.80;1.23;;;3.80;99.90;;;;;;4938875;28;20047;-81
2023/02/27 11:29:07;;;;;;;2.08;1.00;;;3.80;99.90;;;;;;4957990;28;20105;-82
2023/02/27 11:31:36;;;;;;;4.88;1.25;;;3.80;99.90;;;;;;4957460;28;20062;-81
2023/02/27 11:34:05;;;;;;;22.52;3.42;;;3.80;99.90;;;;;;4962175;28;20042;-81
2023/02/27 11:36:47;;;;;;;2.38;1.00;;;3.90;99.90;;;;;;4961624;28;20081;-81
2023/02/27 11:39:21;;;;;;;5.38;1.55;;;3.90;99.90;;;;;;4961041;28;20047;-81
2023/02/27 11:41:48;;;;;;;1.65;1.00;;;3.90;99.90;;;;;;4949893;28;20508;-82
2023/02/27 11:44:19;;;;;;;2.08;1.00;;;3.90;99.90;;;;;;4954018;28;20147;-82
2023/02/27 11:47:18;;;;;;;2.85;1.80;;;4.00;99.90;;;;;;4958559;28;20065;-82
2023/02/27 11:50:11;;;;;;;6.07;1.88;;;4.10;99.90;;;;;;4966534;28;20137;-82
2023/02/27 11:52:47;;;;;;;1.73;1.27;;;4.10;99.90;;;;;;4962572;28;20412;-82
2023/02/27 11:55:18;;;;;;;7.05;1.77;;;4.00;99.90;;;;;;4953847;28;20047;-82
2023/02/27 11:57:49;;;;;;;4.95;3.05;;;3.90;99.90;;;;;;4952321;28;20051;-82
2023/02/27 12:00:22;;;;;;;3.85;1.35;;;3.80;99.90;;;;;;4954918;28;20106;-82
2023/02/27 12:03:21;;;;;;;5.47;1.67;;;3.80;99.90;;;;;;4957128;28;20057;-82
2023/02/27 12:05:52;;;;;;;3.30;1.45;;;3.80;99.90;;;;;;4959956;28;20094;-82
2023/02/27 12:08:56;;;;;;;3.00;1.25;;;3.80;99.90;;;;;;4958688;28;20042;-82
2023/02/27 12:11:29;;;;;;;3.35;1.17;;;3.80;99.90;;;;;;4957028;28;20059;-82
2023/02/27 12:14:12;;;;;;;1.77;0.95;;;3.80;99.90;;;;;;4958349;28;20050;-82
2023/02/27 12:16:45;;;;;;;2.75;1.38;;;3.80;99.90;;;;;;4956831;28;20053;-82
2023/02/27 12:19:36;;;;;;;4.90;2.00;;;3.90;99.90;;;;;;4960733;28;21560;-82
2023/02/27 12:22:32;;;;;;;4.30;1.30;;;4.00;99.90;;;;;;4956551;28;20478;-82
2023/02/27 12:25:38;;;;;;;14.10;3.67;;;4.10;99.90;;;;;;4944854;28;20086;-83
2023/02/27 12:28:16;;;;;;;3.17;1.00;;;4.10;99.90;;;;;;4951914;28;20047;-83
2023/02/27 12:31:09;;;;;;;2.45;1.05;;;4.20;99.90;;;;;;4958777;28;20090;-82
2023/02/27 12:33:51;;;;;;;9.70;2.97;;;4.20;99.90;;;;;;4954361;28;20044;-83
2023/02/27 12:36:18;;;;;;;54.97;8.07;;;4.40;99.90;;;;;;4960299;28;20055;-83
2023/02/27 12:38:45;;;;;;;4.13;1.45;;;4.40;99.90;;;;;;4964267;28;20154;-83
2023/02/27 12:41:35;;;;;;;12.27;2.92;;;4.40;99.90;;;;;;4963297;28;20047;-84
2023/02/27 12:44:09;;;;;;;3.65;1.60;;;4.40;99.90;;;;;;4966260;28;20078;-84
2023/02/27 12:46:39;;;;;;;3.92;1.52;;;4.40;99.90;;;;;;4979168;28;20078;-82
2023/02/27 12:49:23;;;;;;;2.63;1.40;;;4.40;99.90;;;;;;4973122;28;20074;-83
2023/02/27 12:52:34;;;;;;;2.25;1.05;;;4.40;99.90;;;;;;4971776;28;20255;-83
2023/02/27 12:55:18;;;;;;;1.73;1.27;;;4.40;99.90;;;;;;4965632;28;20157;-83
2023/02/27 12:57:54;;;;;;;2.70;1.00;;;4.40;99.90;;;;;;4966860;28;20575;-84
2023/02/27 13:00:27;;;;;;;4.13;1.50;;;4.40;99.90;;;;;;4962070;28;20130;-83
2023/02/27 13:03:10;;;;;;;6.78;1.63;;;4.40;99.90;;;;;;4968584;28;20078;-84
2023/02/27 13:06:04;;;;;;;3.22;1.10;;;4.50;99.90;;;;;;4964717;28;20121;-82
2023/02/27 13:08:37;;;;;;;1.90;1.30;;;4.40;99.90;;;;;;4969727;28;20046;-83
2023/02/27 13:11:13;;;;;;;2.83;1.30;;;4.40;99.90;;;;;;4966148;28;20063;-83
2023/02/27 13:13:50;;;;;;;3.13;1.33;;;4.40;99.90;;;;;;4972749;28;20577;-82
2023/02/27 13:16:32;;;;;;;5.18;1.45;;;4.40;99.90;;;;;;4972521;28;20070;-83
2023/02/27 13:19:13;;;;;;;2.88;1.10;;;4.30;99.90;;;;;;4973142;28;20082;-84
2023/02/27 13:22:08;;;;;;;3.42;1.30;;;4.20;99.90;;;;;;4952184;28;20051;-82
2023/02/27 13:24:43;;;;;;;2.63;1.67;;;4.20;99.90;;;;;;4963567;28;20644;-83